עמוד ראשי
METAR-TAF:

METAR-TAF

שדות תעופה :

נמל התעופה הבינלאומי של דמשק

דמשק, סוריה

קו רוחב: 33-25N, קו אורך: 036-31E, גובה: 608מטר

תצפית מזג אוויר נוכחית

הדו"ח נערך לפני 1 שעות ו 2דקות, בשעה 21:00 UTC
רוח 18קשר מכיוון דרום/דרום-מערב
טמפרטורת 23 צלסיוס
לחות 78%
לחץ 1007 hPa
ראות 10 קילומטר או יותר
ללא עננים שבסיסם נמוך מ 5000 רגל או קומולונימבוס

METAR: OSDI 232100Z 21018KT CAVOK 23/19 Q1007

זמן: 01:02 (22:02 UTC)

תחזית

הדו"ח נערך לפני 5 שעות ו 2דקות, בשעה 17:00 UTC
תחזית בתוקף מ 23 ב 18 UTC עד 24 ב 24 UTC
רוח 15קשר מכיוון מערב/דרום-מערב
ראות 10 קילומטר או יותר
מעט עננים בגובה 3000רגל
עננים פזורים בגובה 10000רגל
זמנית מ -
23 ב 20 UTC עד 24 ב 10 UTC
רוח 12קשר מכיוון דרום-מערב
ראות 10 קילומטר או יותר
ללא עננים שבסיסם נמוך מ 5000 רגל או קומולונימבוס

TAF: OSDI 231700Z 2318/2424 25015KT 9999 FEW030 SCT100 TEMPO 2320/2410 22012KT CAVOK

תצפיות ותחזיות מזג אוויר לגבי יותר מ- 4,000 שדות תעופה ברחבי העולם. דוחות METAR ו- TAF.

התחנות הזמינות מסומנות בנקודות צהובות ואדומות על גבי המפה.

העבר את העכבר לנקודה הצבעונית על מנת לראות את שם התחנה.

לאחר מכן, לחץ כדי לראות את תוכן ואת תחזיות מזג האוויר.

כדי לשנות את המפה: לחץ על הכפתורים הירוקים עם הפלוס השחור כדי להתקרב; על הכפתור הירוק עם המקף כדי להתרחק; או בחיצים הירוקים למפות סמוכות.


METAR-TAF: